Airfield :
LOGIN :

Register | Disclaimer

   EN    FR    IT 

 










Legend :    VFR   Marginal VFR   IFR   Intensive IFR   Very Intensive IFR
Visi :
Ceiling :
>= 8 km
>= 3000ft
5 to 8 km
1000 to 3000 ft
1500m to 5 km
500 to 1000 ft
800 to 1500m
200 to 500 ft
< 800m
< 200 ft
Symbols :   Thunderstorms  Fog  Heavy snow  Heavy precipitations  Wind > 20 kt
SIGMETs :     Misc.  Thunderstorms  Icing  Turbulence  Mountain Waves  Volcanic Ashes







- Airport Elevation : 52 ft
- IATA code : IOM
- Download approach charts


EGNS - Isle of Man

CURRENT METAR :
  • 250820Z 24012KT 200V280 9999 FEW009 BKN012 10/07 Q1007 NOSIG

EXPIRED METARs :
  • 250750Z 25014KT 210V280 9999 FEW009 BKN012 09/07 Q1007 NOSIG
  • 250720Z 25013KT 200V270 9999 FEW009 BKN012 08/06 Q1007 NOSIG
  • 250650Z 27006KT 220V300 9999 SCT008 BKN011 08/07 Q1007 NOSIG
  • 250620Z 26011KT 230V310 9999 SCT009 BKN011 08/06 Q1007 NOSIG
  • 250550Z 26011KT 230V290 9999 BKN009 07/06 Q1007 NOSIG

TAF TAF EGNS
Valid from the 25 at 09:00 until the 25 at 18:00 UTC


250800Z 2509/2518 24015KT 9999 FEW009 BKN012
BECMG 2509/2512 SCT012
PROB40
TEMPO 2512/2518 25020G30KT 7000 SHRA BKN012
No reported NOTAMs for that airfield.



MET'MAP, your aeronautical weather chart ! - Copyright ORBIFLY December 2007 - Disclaimer

ORBIFLY MET'MAP TEAM :

Programming & Development : Alexandra Zaïnal
Concept & Development : Baudouin d'Aumeries
Co-Development & Prog : Marc-Olivier Méhu
Technical & hardware support : Manuel Goepfert

Contact : metmap@orbifly.com




SOURCES & CREDITS :

   NOAA